Point Isabel — WDD7993 — position and weather

sailwx.info

Track history (hours):
 
Tides and Currents Weather Stations Pressure Air Temp Water Temp Dewpoint Dewpoint Depression Visibility Wind Speed Wind Dir Waves Ship Positions

Point Isabel

Owner: Higman Barge Lines, Inc., Orange, TX. More information available from US FCC via Universal Licensing System and Coast Guard Vessel Documentation Center.

Last reported at 2017-Dec-15 06:32 UTC. Time now 2017-Dec-15 08:16 UTC.
Position N 29°57' W 090°23'.

Length 24 m; draft 2.6 m.

Type: Towing. MMSI: 367193780.

Date/timePositionNaut miles runAvg speedWind from/ knotsBaromVisibWave heightAir tempDewpointWater temp
2017-Dec-15 06:32N 29°57' W 090°23'0 0.0
2017-Dec-15 06:30N 29°57' W 090°23'0 0.0
2017-Dec-15 06:00N 29°57' W 090°23'0 0.0
2017-Dec-15 02:30N 29°57' W 090°23'0 0.0
2017-Dec-14 16:03N 29°57' W 090°23'0 1.7
2017-Dec-14 15:59N 29°57' W 090°23'1 0.0
2017-Dec-13 11:22N 29°57' W 090°23'0 0.0
2017-Dec-13 11:00N 29°57' W 090°23'0 0.0
2017-Dec-13 10:30N 29°57' W 090°23'0 0.0
2017-Dec-13 08:51N 29°57' W 090°24'0 0.0
2017-Dec-13 08:14N 29°57' W 090°24'0 0.0
2017-Dec-13 07:57N 29°57' W 090°24'2 0.1
2017-Dec-12 07:46N 29°56' W 090°22'1 0.8
2017-Dec-12 05:58N 29°57' W 090°23'0 0.0
2017-Dec-12 05:30N 29°57' W 090°23'0 0.0
2017-Dec-12 04:12N 29°57' W 090°23'0 0.0
2017-Dec-12 03:48N 29°57' W 090°23'0 0.0
2017-Dec-12 03:30N 29°57' W 090°23'0 0.0
2017-Dec-12 03:00N 29°57' W 090°23'0 0.0
2017-Dec-12 02:08N 29°57' W 090°23'0 0.0
2017-Dec-12 01:51N 29°57' W 090°23'0 0.0
2017-Dec-11 13:33N 29°57' W 090°23'0 7.6
2017-Dec-11 13:30N 29°57' W 090°23'7 6.5
2017-Dec-11 12:24N 29°58' W 090°14'8 0.3
2017-Dec-10 12:02N 29°57' W 090°23'0 0.0
2017-Dec-10 11:57N 29°57' W 090°23'0 0.0
2017-Dec-10 11:30N 29°57' W 090°23'0 0.2
2017-Dec-10 09:16N 29°57' W 090°23'0 0.0
2017-Dec-10 09:00N 29°57' W 090°23'0 0.8
2017-Dec-10 08:30N 29°57' W 090°23'1 0.0
2017-Dec-09 12:50N 29°57' W 090°23'  
Track history (hours):
 
Tides and Currents Weather Stations Pressure Air Temp Water Temp Dewpoint Dewpoint Depression Visibility Wind Speed Wind Dir Waves Ship Positions

Point Isabel

Owner: Higman Barge Lines, Inc., Orange, TX. More information available from US FCC via Universal Licensing System and Coast Guard Vessel Documentation Center.

Last reported at 2017-Dec-15 06:32 UTC. Time now 2017-Dec-15 08:16 UTC.
Position N 29°57' W 090°23'.

Length 24 m; draft 2.6 m.

Type: Towing. MMSI: 367193780.

Date/timePositionNaut miles runAvg speedWind from/ knotsBaromVisibWave heightAir tempDewpointWater temp
2017-Dec-15 06:32N 29°57' W 090°23'0 0.0
2017-Dec-15 06:30N 29°57' W 090°23'0 0.0
2017-Dec-15 06:00N 29°57' W 090°23'0 0.0
2017-Dec-15 02:30N 29°57' W 090°23'0 0.0
2017-Dec-14 16:03N 29°57' W 090°23'0 1.7
2017-Dec-14 15:59N 29°57' W 090°23'1 0.0
2017-Dec-13 11:22N 29°57' W 090°23'0 0.0
2017-Dec-13 11:00N 29°57' W 090°23'0 0.0
2017-Dec-13 10:30N 29°57' W 090°23'0 0.0
2017-Dec-13 08:51N 29°57' W 090°24'0 0.0
2017-Dec-13 08:14N 29°57' W 090°24'0 0.0
2017-Dec-13 07:57N 29°57' W 090°24'2 0.1
2017-Dec-12 07:46N 29°56' W 090°22'1 0.8
2017-Dec-12 05:58N 29°57' W 090°23'0 0.0
2017-Dec-12 05:30N 29°57' W 090°23'0 0.0
2017-Dec-12 04:12N 29°57' W 090°23'0 0.0
2017-Dec-12 03:48N 29°57' W 090°23'0 0.0
2017-Dec-12 03:30N 29°57' W 090°23'0 0.0
2017-Dec-12 03:00N 29°57' W 090°23'0 0.0
2017-Dec-12 02:08N 29°57' W 090°23'0 0.0
2017-Dec-12 01:51N 29°57' W 090°23'0 0.0
2017-Dec-11 13:33N 29°57' W 090°23'0 7.6
2017-Dec-11 13:30N 29°57' W 090°23'7 6.5
2017-Dec-11 12:24N 29°58' W 090°14'8 0.3
2017-Dec-10 12:02N 29°57' W 090°23'0 0.0
2017-Dec-10 11:57N 29°57' W 090°23'0 0.0
2017-Dec-10 11:30N 29°57' W 090°23'0 0.2
2017-Dec-10 09:16N 29°57' W 090°23'0 0.0
2017-Dec-10 09:00N 29°57' W 090°23'0 0.8
2017-Dec-10 08:30N 29°57' W 090°23'1 0.0
2017-Dec-09 12:50N 29°57' W 090°23'  

Dump ship's entire track history